Time;durP1;ratioP1;P1;durP2;ratioP2;P2;SDS_P1;SDS_P2;PMS_P1;PMS_P2;Temp;Humidity;BMP_temperature;BMP_pressure;BME280_temperature;BME280_humidity;BME280_pressure;Samples;Min_cycle;Max_cycle;Signal;HPM_P1;HPM_P2
2023/07/22 00:02:03;;;;;;;13.18;7.07;;;13.50;82.20;;;;;;4952679;28;20113;-77
2023/07/22 00:04:28;;;;;;;10.38;7.05;;;13.50;81.60;;;;;;4961651;28;20038;-77
2023/07/22 00:06:54;;;;;;;11.38;7.93;;;13.40;83.10;;;;;;4952636;28;20514;-77
2023/07/22 00:09:20;;;;;;;10.60;7.80;;;13.40;84.70;;;;;;4964494;28;20030;-77
2023/07/22 00:11:45;;;;;;;7.97;6.63;;;13.40;83.10;;;;;;4952733;28;20030;-77
2023/07/22 00:14:11;;;;;;;9.35;7.57;;;13.30;82.40;;;;;;4958278;28;20035;-77
2023/07/22 00:16:36;;;;;;;8.73;6.85;;;13.40;84.20;;;;;;4953519;28;20053;-77
2023/07/22 00:19:02;;;;;;;11.13;8.18;;;13.60;83.70;;;;;;4938130;28;20030;-77
2023/07/22 00:21:29;;;;;;;8.55;6.65;;;13.50;83.90;;;;;;4961851;28;20026;-77
2023/07/22 00:23:54;;;;;;;11.25;7.55;;;13.30;83.50;;;;;;4959315;28;20030;-77
2023/07/22 00:26:20;;;;;;;10.40;7.60;;;13.30;83.60;;;;;;4991374;28;20033;-77
2023/07/22 00:28:45;;;;;;;11.82;7.80;;;13.30;84.20;;;;;;4961926;28;20039;-77
2023/07/22 00:31:11;;;;;;;8.57;6.78;;;13.20;85.40;;;;;;4957861;28;20035;-77
2023/07/22 00:33:37;;;;;;;10.02;7.15;;;13.30;86.20;;;;;;4954188;28;20041;-77
2023/07/22 00:36:03;;;;;;;11.63;8.32;;;13.30;84.40;;;;;;4973848;28;20693;-77
2023/07/22 00:38:28;;;;;;;8.57;6.57;;;13.40;86.00;;;;;;4943116;28;20096;-77
2023/07/22 00:40:54;;;;;;;12.05;8.55;;;13.30;86.10;;;;;;4958455;28;21446;-76
2023/07/22 00:43:19;;;;;;;11.80;7.97;;;13.40;88.70;;;;;;4938727;28;20027;-77
2023/07/22 00:45:45;;;;;;;9.43;7.35;;;13.30;88.30;;;;;;4955212;28;20401;-77
2023/07/22 00:48:10;;;;;;;15.90;8.25;;;13.30;87.10;;;;;;4939996;28;20429;-77
2023/07/22 00:50:36;;;;;;;11.32;7.22;;;13.30;86.60;;;;;;4959010;28;20887;-77
2023/07/22 00:53:01;;;;;;;9.05;6.93;;;13.30;87.60;;;;;;4972878;28;20097;-77
2023/07/22 00:55:27;;;;;;;10.38;7.03;;;13.40;87.80;;;;;;4979471;28;20041;-77
2023/07/22 00:57:54;;;;;;;9.35;7.57;;;13.50;87.80;;;;;;4956952;28;20034;-77
2023/07/22 01:00:19;;;;;;;9.20;6.45;;;13.50;87.70;;;;;;4962033;28;20090;-77
2023/07/22 01:02:45;;;;;;;9.10;6.97;;;13.50;87.60;;;;;;4955154;28;20035;-77
2023/07/22 01:05:11;;;;;;;8.77;7.25;;;13.50;88.30;;;;;;4956501;28;20026;-77
2023/07/22 01:07:38;;;;;;;11.10;7.43;;;13.40;88.70;;;;;;4965728;28;20061;-77
2023/07/22 01:10:05;;;;;;;12.00;7.53;;;13.60;89.30;;;;;;4966471;28;20034;-77
2023/07/22 01:12:31;;;;;;;11.50;7.65;;;13.50;89.10;;;;;;4952873;28;20034;-77
2023/07/22 01:14:56;;;;;;;11.63;8.57;;;13.50;90.00;;;;;;4975444;28;20042;-77
2023/07/22 01:17:22;;;;;;;15.20;10.15;;;13.40;90.10;;;;;;4969636;28;20084;-77
2023/07/22 01:19:47;;;;;;;13.15;8.60;;;13.40;92.10;;;;;;4964260;28;20034;-77
2023/07/22 01:22:13;;;;;;;10.27;8.45;;;13.30;91.00;;;;;;4963706;28;20031;-76
2023/07/22 01:24:39;;;;;;;9.13;7.50;;;13.30;90.50;;;;;;4971308;28;20039;-78
2023/07/22 01:27:08;;;;;;;13.25;9.00;;;13.50;91.50;;;;;;4951620;28;20038;-77
2023/07/22 01:29:33;;;;;;;9.82;7.55;;;13.30;92.80;;;;;;4973877;28;20035;-77
2023/07/22 01:31:59;;;;;;;9.25;7.03;;;13.30;91.20;;;;;;4963341;28;20030;-77
2023/07/22 01:34:25;;;;;;;9.85;7.13;;;13.40;92.20;;;;;;4955631;28;20035;-77
2023/07/22 01:36:50;;;;;;;12.55;7.97;;;13.30;92.90;;;;;;4964686;28;20323;-77
2023/07/22 01:39:16;;;;;;;10.65;7.53;;;13.40;92.20;;;;;;4955377;28;21960;-77
2023/07/22 01:41:41;;;;;;;11.98;8.00;;;13.40;92.00;;;;;;4945982;28;20039;-78
2023/07/22 01:44:07;;;;;;;9.60;7.20;;;13.40;93.10;;;;;;4980393;28;20117;-77
2023/07/22 01:46:33;;;;;;;12.07;7.28;;;13.40;92.30;;;;;;4966737;28;20027;-77
2023/07/22 01:48:59;;;;;;;10.43;8.00;;;13.50;93.30;;;;;;4961672;28;20414;-77
2023/07/22 01:51:25;;;;;;;9.38;6.95;;;13.50;92.50;;;;;;4963523;28;20030;-77
2023/07/22 01:53:51;;;;;;;9.07;6.75;;;13.60;92.30;;;;;;4957831;28;20049;-77
2023/07/22 01:56:20;;;;;;;7.65;5.75;;;13.80;92.60;;;;;;4957356;28;20074;-77
2023/07/22 01:58:45;;;;;;;12.85;6.50;;;13.70;92.40;;;;;;4965054;28;20041;-76
2023/07/22 02:01:13;;;;;;;11.30;7.07;;;13.70;92.20;;;;;;4966993;28;20042;-76
2023/07/22 02:03:40;;;;;;;8.30;7.10;;;13.70;93.50;;;;;;4975211;28;20039;-77
2023/07/22 02:06:05;;;;;;;12.60;6.68;;;13.70;92.90;;;;;;4973310;28;20368;-79
2023/07/22 02:08:31;;;;;;;7.97;5.97;;;13.80;93.10;;;;;;4946717;28;20041;-76
2023/07/22 02:11:04;;;;;;;10.88;6.22;;;13.90;92.60;;;;;;4972351;28;20590;-76
2023/07/22 02:13:30;;;;;;;8.77;6.20;;;13.90;92.70;;;;;;4975860;28;20120;-79
2023/07/22 02:15:55;;;;;;;8.63;6.80;;;14.00;93.30;;;;;;4939204;28;20035;-78
2023/07/22 02:18:21;;;;;;;8.77;6.32;;;13.90;93.40;;;;;;4966829;28;20144;-79
2023/07/22 02:20:46;;;;;;;7.55;6.00;;;14.00;92.60;;;;;;4974143;28;20046;-78
2023/07/22 02:23:12;;;;;;;8.27;6.05;;;14.10;92.60;;;;;;4954162;28;20039;-78
2023/07/22 02:25:38;;;;;;;8.73;6.30;;;14.10;93.20;;;;;;4967119;28;20030;-78
2023/07/22 02:28:03;;;;;;;12.57;6.10;;;14.10;92.80;;;;;;4967341;28;20042;-79
2023/07/22 02:30:29;;;;;;;10.32;6.10;;;14.20;93.10;;;;;;4975094;28;20137;-78
2023/07/22 02:32:54;;;;;;;8.32;5.78;;;14.20;93.40;;;;;;4960606;28;20034;-78
2023/07/22 02:35:20;;;;;;;9.27;6.38;;;14.00;93.20;;;;;;4963837;28;20034;-78
2023/07/22 02:37:46;;;;;;;13.32;6.22;;;14.20;92.90;;;;;;4966800;28;20398;-78
2023/07/22 02:40:11;;;;;;;9.13;6.32;;;14.30;92.90;;;;;;4960353;28;20046;-78
2023/07/22 02:42:37;;;;;;;8.80;5.68;;;14.30;92.90;;;;;;4964293;28;20027;-78
2023/07/22 02:45:09;;;;;;;7.57;5.47;;;14.30;92.80;;;;;;4951818;28;20050;-78
2023/07/22 02:47:38;;;;;;;8.93;6.13;;;14.30;93.10;;;;;;4966528;28;20509;-79
2023/07/22 02:50:06;;;;;;;7.82;6.07;;;14.30;93.50;;;;;;4950362;28;20122;-78
2023/07/22 02:52:31;;;;;;;11.20;6.20;;;14.30;93.30;;;;;;4946627;28;20042;-78
2023/07/22 02:55:18;;;;;;;10.30;5.30;;;14.30;93.80;;;;;;4949583;28;20051;-78
2023/07/22 02:57:44;;;;;;;7.10;5.30;;;14.40;93.30;;;;;;4937554;28;20035;-79
2023/07/22 03:00:12;;;;;;;7.05;5.13;;;14.40;93.00;;;;;;4962654;28;20360;-78
2023/07/22 03:02:38;;;;;;;9.82;6.60;;;14.40;93.30;;;;;;4957359;28;20034;-78
2023/07/22 03:05:07;;;;;;;7.13;5.10;;;14.40;93.10;;;;;;4971951;28;20130;-78
2023/07/22 03:07:39;;;;;;;11.80;6.22;;;14.40;93.40;;;;;;4974817;28;20048;-79
2023/07/22 03:10:05;;;;;;;8.43;5.80;;;14.40;93.20;;;;;;4977227;28;20034;-79
2023/07/22 03:12:32;;;;;;;11.00;6.28;;;14.40;93.20;;;;;;4957528;28;20041;-78
2023/07/22 03:14:57;;;;;;;7.00;5.53;;;14.40;93.20;;;;;;4974450;28;20118;-78
2023/07/22 03:17:23;;;;;;;9.88;6.22;;;14.30;93.40;;;;;;4945949;28;20107;-78
2023/07/22 03:19:48;;;;;;;13.18;6.88;;;14.50;93.20;;;;;;4968608;28;20034;-78
2023/07/22 03:22:15;;;;;;;11.20;6.82;;;14.50;93.20;;;;;;4948351;28;20296;-80
2023/07/22 03:24:41;;;;;;;11.70;6.00;;;14.50;93.20;;;;;;4964955;28;20022;-78
2023/07/22 03:27:07;;;;;;;11.00;5.63;;;14.50;93.10;;;;;;4964276;28;20077;-78
2023/07/22 03:29:33;;;;;;;8.63;5.70;;;14.50;93.00;;;;;;4959711;28;20030;-79
2023/07/22 03:31:59;;;;;;;8.73;4.93;;;14.60;92.90;;;;;;4994794;28;20033;-79
2023/07/22 03:34:29;;;;;;;7.20;5.72;;;14.60;92.80;;;;;;4962203;28;20026;-79
2023/07/22 03:36:55;;;;;;;9.48;6.15;;;14.60;92.60;;;;;;4948326;28;20023;-79
2023/07/22 03:39:21;;;;;;;10.38;6.65;;;14.60;92.60;;;;;;4972532;28;20541;-79
2023/07/22 03:41:46;;;;;;;13.15;5.32;;;14.60;92.60;;;;;;4954140;28;20054;-79
2023/07/22 03:44:12;;;;;;;9.63;5.72;;;14.60;92.60;;;;;;4953886;28;20098;-80
2023/07/22 03:46:38;;;;;;;7.30;5.40;;;14.60;92.70;;;;;;4960440;28;20101;-77
2023/07/22 03:49:03;;;;;;;7.80;5.57;;;14.70;92.30;;;;;;4956555;28;20113;-77
2023/07/22 03:51:29;;;;;;;9.65;4.75;;;14.70;92.30;;;;;;4972340;28;20027;-77
2023/07/22 03:53:54;;;;;;;7.65;5.15;;;14.70;92.30;;;;;;4962432;28;20278;-76
2023/07/22 03:56:20;;;;;;;7.00;5.13;;;14.60;92.20;;;;;;4977819;28;20101;-77
2023/07/22 03:58:46;;;;;;;7.30;4.15;;;14.60;92.10;;;;;;4957940;28;20038;-79
2023/07/22 04:01:12;;;;;;;8.77;4.20;;;14.70;92.30;;;;;;4965291;28;20042;-79
2023/07/22 04:03:37;;;;;;;7.22;5.30;;;14.70;92.00;;;;;;4954188;28;20054;-79
2023/07/22 04:06:03;;;;;;;6.90;5.15;;;14.70;92.10;;;;;;4963926;28;20035;-79
2023/07/22 04:08:28;;;;;;;5.90;4.35;;;14.70;91.90;;;;;;4956970;28;20022;-78
2023/07/22 04:10:55;;;;;;;9.15;5.22;;;14.70;91.80;;;;;;4953982;28;20035;-79
2023/07/22 04:13:20;;;;;;;8.35;5.18;;;14.70;91.60;;;;;;4971423;28;20522;-79
2023/07/22 04:15:49;;;;;;;6.97;5.20;;;14.80;91.60;;;;;;4965934;28;20096;-79
2023/07/22 04:18:15;;;;;;;8.38;5.40;;;14.80;91.90;;;;;;4960686;28;20394;-79
2023/07/22 04:20:41;;;;;;;7.78;4.95;;;14.70;91.50;;;;;;4971532;28;20054;-78
2023/07/22 04:23:07;;;;;;;8.10;4.53;;;14.60;91.50;;;;;;4976911;28;20077;-79
2023/07/22 04:25:32;;;;;;;6.35;4.32;;;14.80;91.60;;;;;;4957289;28;20042;-79
2023/07/22 04:27:58;;;;;;;6.53;4.53;;;14.80;91.60;;;;;;4948374;28;20038;-79
2023/07/22 04:30:24;;;;;;;7.60;5.35;;;14.80;91.70;;;;;;4979320;28;20034;-79
2023/07/22 04:32:50;;;;;;;8.05;4.47;;;14.80;91.70;;;;;;4956196;28;20039;-78
2023/07/22 04:35:17;;;;;;;9.70;5.20;;;14.90;91.60;;;;;;4956861;28;20042;-78
2023/07/22 04:37:44;;;;;;;10.73;6.15;;;14.80;91.60;;;;;;4951915;28;20121;-79
2023/07/22 04:40:13;;;;;;;6.72;4.25;;;14.80;91.80;;;;;;4968790;28;20046;-79
2023/07/22 04:42:42;;;;;;;7.82;5.03;;;14.90;91.60;;;;;;4966521;28;20060;-78
2023/07/22 04:45:11;;;;;;;5.13;3.35;;;14.90;91.50;;;;;;4965484;28;20486;-79
2023/07/22 04:47:41;;;;;;;8.50;5.45;;;14.90;91.40;;;;;;4963138;28;20062;-78
2023/07/22 04:50:09;;;;;;;8.77;5.15;;;14.90;91.60;;;;;;4958895;28;20037;-78
2023/07/22 04:52:37;;;;;;;7.57;4.90;;;14.90;91.40;;;;;;4927999;28;20050;-78
2023/07/22 04:55:09;;;;;;;9.32;5.55;;;14.90;91.40;;;;;;4956601;28;20038;-79
2023/07/22 04:57:37;;;;;;;7.28;4.80;;;15.00;91.40;;;;;;4977153;28;20031;-79
2023/07/22 05:00:04;;;;;;;9.48;5.07;;;15.00;91.30;;;;;;4930242;28;20036;-79
2023/07/22 05:02:30;;;;;;;7.45;5.55;;;15.00;91.30;;;;;;4966801;28;20405;-78
2023/07/22 05:04:56;;;;;;;10.10;5.07;;;15.00;91.30;;;;;;4961246;28;20088;-78
2023/07/22 05:07:21;;;;;;;6.93;4.72;;;15.10;91.30;;;;;;4963777;28;20034;-78
2023/07/22 05:09:47;;;;;;;10.65;4.97;;;15.10;91.50;;;;;;4948375;28;20491;-77
2023/07/22 05:12:12;;;;;;;7.57;4.57;;;15.10;91.20;;;;;;4966295;28;20027;-77
2023/07/22 05:14:38;;;;;;;7.68;5.05;;;15.10;91.10;;;;;;4959926;28;20046;-77
2023/07/22 05:17:04;;;;;;;9.95;5.43;;;15.30;91.10;;;;;;4948462;28;20023;-77
2023/07/22 05:19:29;;;;;;;6.20;5.20;;;15.20;90.90;;;;;;4966408;28;20031;-77
2023/07/22 05:21:55;;;;;;;7.05;5.38;;;15.20;91.30;;;;;;4953680;28;20127;-77
2023/07/22 05:24:21;;;;;;;9.85;5.65;;;15.20;90.90;;;;;;4961919;28;20487;-77
2023/07/22 05:26:46;;;;;;;6.80;4.25;;;15.30;91.00;;;;;;4946492;28;20442;-78
2023/07/22 05:29:12;;;;;;;8.02;6.05;;;15.30;90.90;;;;;;4975024;28;20073;-78
2023/07/22 05:31:38;;;;;;;6.95;5.30;;;15.30;90.90;;;;;;4980919;28;20030;-77
2023/07/22 05:34:03;;;;;;;9.30;5.53;;;15.40;90.80;;;;;;4960539;28;20088;-78
2023/07/22 05:36:29;;;;;;;6.55;5.03;;;15.40;90.80;;;;;;4958285;28;20550;-77
2023/07/22 05:38:55;;;;;;;8.07;5.43;;;15.40;90.70;;;;;;4981574;28;20038;-77
2023/07/22 05:41:20;;;;;;;9.55;5.57;;;15.40;90.60;;;;;;4952018;28;20034;-78
2023/07/22 05:43:46;;;;;;;6.53;4.90;;;15.40;90.60;;;;;;4962034;28;20034;-78
2023/07/22 05:46:12;;;;;;;8.95;4.60;;;15.50;90.60;;;;;;4965493;28;20113;-77
2023/07/22 05:48:37;;;;;;;7.85;5.32;;;15.60;90.50;;;;;;4954397;28;20106;-77
2023/07/22 05:51:03;;;;;;;7.38;5.13;;;15.70;90.40;;;;;;4947357;28;20110;-77
2023/07/22 05:53:28;;;;;;;6.28;4.65;;;15.70;90.40;;;;;;4959853;28;20049;-77
2023/07/22 05:55:54;;;;;;;8.00;4.88;;;16.00;90.20;;;;;;4944975;28;20125;-77
2023/07/22 05:58:19;;;;;;;6.55;4.63;;;16.00;90.00;;;;;;4963488;28;20034;-77
2023/07/22 06:00:46;;;;;;;7.13;4.85;;;16.10;89.90;;;;;;4965195;28;20031;-77
2023/07/22 06:03:12;;;;;;;8.60;5.68;;;16.40;90.00;;;;;;4947511;28;21220;-77
2023/07/22 06:05:37;;;;;;;6.90;5.45;;;16.60;88.80;;;;;;4980818;28;20038;-79
2023/07/22 06:08:03;;;;;;;8.82;5.30;;;16.50;88.30;;;;;;4976683;28;20065;-77
2023/07/22 06:10:29;;;;;;;8.40;5.40;;;16.80;87.90;;;;;;4972827;28;20062;-78
2023/07/22 06:12:55;;;;;;;5.38;4.70;;;16.80;87.90;;;;;;4972363;28;20572;-80
2023/07/22 06:15:20;;;;;;;7.82;4.55;;;17.10;88.00;;;;;;4964020;28;20504;-81
2023/07/22 06:17:46;;;;;;;9.43;6.63;;;17.00;86.30;;;;;;4950109;28;20438;-81
2023/07/22 06:20:12;;;;;;;8.82;5.32;;;16.90;87.40;;;;;;4966687;28;20034;-80
2023/07/22 06:22:37;;;;;;;9.50;5.70;;;17.00;87.20;;;;;;4966017;28;20158;-81
2023/07/22 06:25:04;;;;;;;9.40;5.72;;;17.00;87.50;;;;;;4963909;28;20494;-81
2023/07/22 06:27:30;;;;;;;8.45;5.38;;;17.40;87.40;;;;;;4967510;28;20646;-80
2023/07/22 06:29:56;;;;;;;8.18;5.80;;;17.70;86.50;;;;;;4968162;28;20074;-81
2023/07/22 06:32:21;;;;;;;10.00;6.22;;;17.90;87.40;;;;;;4946479;28;20050;-80
2023/07/22 06:34:47;;;;;;;8.98;5.20;;;18.10;86.10;;;;;;4975508;28;20038;-80
2023/07/22 06:37:13;;;;;;;9.25;5.43;;;18.10;85.20;;;;;;4962808;28;20489;-79
2023/07/22 06:39:38;;;;;;;7.80;6.40;;;18.30;84.60;;;;;;4951479;28;20034;-79
2023/07/22 06:42:04;;;;;;;14.32;6.75;;;18.20;84.60;;;;;;4951478;28;20533;-79
2023/07/22 06:44:30;;;;;;;11.52;6.15;;;18.40;87.20;;;;;;4958668;28;20117;-79
2023/07/22 06:46:56;;;;;;;10.20;6.03;;;18.90;83.50;;;;;;4967655;28;20050;-78
2023/07/22 06:49:22;;;;;;;8.20;5.15;;;19.00;83.30;;;;;;4960453;28;20125;-78
2023/07/22 06:51:47;;;;;;;12.73;6.65;;;18.90;81.70;;;;;;4964945;28;20129;-78
2023/07/22 06:54:13;;;;;;;10.57;5.68;;;19.00;81.70;;;;;;4955184;28;20038;-78
2023/07/22 06:56:38;;;;;;;9.25;5.65;;;18.70;82.50;;;;;;4973623;28;20046;-80
2023/07/22 06:59:04;;;;;;;11.68;5.40;;;18.80;82.60;;;;;;4959295;28;20501;-79
2023/07/22 07:01:29;;;;;;;7.50;5.43;;;19.70;84.40;;;;;;4979402;28;20050;-79
2023/07/22 07:03:56;;;;;;;7.55;5.55;;;20.00;83.10;;;;;;4963987;28;20120;-79
2023/07/22 07:06:22;;;;;;;10.98;8.60;;;20.40;81.00;;;;;;4961744;28;20113;-79
2023/07/22 07:08:48;;;;;;;7.70;5.38;;;20.70;79.30;;;;;;4978571;28;20390;-79
2023/07/22 07:11:14;;;;;;;10.05;5.40;;;20.50;77.70;;;;;;4978389;28;20030;-79
2023/07/22 07:13:40;;;;;;;10.38;6.35;;;20.40;79.10;;;;;;4958699;28;20065;-78
2023/07/22 07:16:23;;;;;;;9.40;6.38;;;20.60;77.20;;;;;;4944006;28;20038;-79
2023/07/22 07:18:50;;;;;;;7.30;5.68;;;20.90;78.60;;;;;;4956789;28;20042;-79
2023/07/22 07:21:16;;;;;;;12.93;6.07;;;20.70;78.00;;;;;;4962694;28;20042;-78
2023/07/22 07:23:42;;;;;;;8.30;6.03;;;20.90;79.90;;;;;;4964073;28;20039;-78
2023/07/22 07:26:07;;;;;;;8.85;5.50;;;21.40;81.80;;;;;;4944927;28;20101;-78
2023/07/22 07:28:33;;;;;;;8.30;6.22;;;21.70;80.80;;;;;;4986448;28;20126;-78
2023/07/22 07:30:59;;;;;;;9.02;6.57;;;21.40;75.70;;;;;;4958087;28;20030;-79
2023/07/22 07:33:24;;;;;;;8.35;6.65;;;21.20;75.10;;;;;;4983083;28;20045;-78
2023/07/22 07:35:50;;;;;;;7.43;5.90;;;20.90;75.80;;;;;;4949043;28;20034;-79
2023/07/22 07:38:15;;;;;;;8.60;4.65;;;21.20;75.60;;;;;;4945425;28;20065;-78
2023/07/22 07:40:41;;;;;;;8.73;6.45;;;21.20;74.60;;;;;;4955733;28;20065;-77
2023/07/22 07:43:06;;;;;;;10.70;6.28;;;21.00;73.90;;;;;;4970721;28;20038;-77
2023/07/22 07:45:32;;;;;;;7.82;5.45;;;21.30;73.50;;;;;;4961716;28;20410;-77
2023/07/22 07:47:57;;;;;;;10.77;7.72;;;21.30;73.10;;;;;;4990276;28;20591;-78
2023/07/22 07:50:23;;;;;;;8.25;6.55;;;21.70;75.70;;;;;;4977967;28;20038;-78
2023/07/22 07:52:48;;;;;;;8.13;5.95;;;22.00;73.10;;;;;;4963505;28;20458;-78
2023/07/22 07:55:14;;;;;;;5.85;4.32;;;22.00;71.90;;;;;;4969395;28;20092;-78
2023/07/22 07:57:40;;;;;;;7.72;5.85;;;22.60;75.30;;;;;;4969410;28;20046;-78
2023/07/22 08:00:08;;;;;;;6.15;3.95;;;22.90;74.30;;;;;;4968134;28;20503;-79
2023/07/22 08:02:35;;;;;;;10.35;6.65;;;22.70;70.90;;;;;;4964976;28;20430;-79
2023/07/22 08:05:00;;;;;;;9.02;6.82;;;22.30;71.50;;;;;;4958058;28;20034;-78
2023/07/22 08:07:26;;;;;;;10.10;5.88;;;22.60;72.40;;;;;;4956567;28;20031;-79
2023/07/22 08:09:52;;;;;;;10.38;6.47;;;22.80;71.20;;;;;;4961996;28;20038;-79
2023/07/22 08:12:18;;;;;;;6.53;4.53;;;22.60;71.10;;;;;;4973949;28;20525;-79
2023/07/22 08:14:44;;;;;;;11.55;6.28;;;22.50;70.20;;;;;;4955767;28;20042;-80
2023/07/22 08:17:10;;;;;;;9.93;7.93;;;22.30;70.10;;;;;;4961524;28;20031;-79
2023/07/22 08:19:35;;;;;;;10.18;7.05;;;22.50;71.60;;;;;;4946157;28;20031;-79
2023/07/22 08:22:01;;;;;;;8.93;5.78;;;22.90;70.10;;;;;;4958501;28;20049;-80
2023/07/22 08:24:26;;;;;;;7.30;5.63;;;22.90;68.90;;;;;;4959310;28;20069;-79
2023/07/22 08:26:52;;;;;;;9.80;6.13;;;22.90;70.00;;;;;;4959463;28;20035;-80
2023/07/22 08:29:18;;;;;;;8.40;6.47;;;22.90;68.90;;;;;;4989261;28;20027;-81
2023/07/22 08:31:43;;;;;;;14.95;6.07;;;23.40;69.40;;;;;;4958330;28;20045;-81
2023/07/22 08:34:09;;;;;;;10.20;6.68;;;23.40;67.90;;;;;;4955895;28;20038;-79
2023/07/22 08:36:35;;;;;;;7.93;5.82;;;23.80;71.50;;;;;;4959401;28;20078;-78
2023/07/22 08:39:01;;;;;;;9.15;6.15;;;23.60;67.60;;;;;;4961157;28;20062;-78
2023/07/22 08:41:26;;;;;;;10.27;5.72;;;23.40;67.00;;;;;;4981021;28;20446;-79
2023/07/22 08:43:52;;;;;;;7.30;6.00;;;23.20;66.60;;;;;;4960542;28;20499;-78
2023/07/22 08:46:19;;;;;;;15.30;7.95;;;23.30;66.90;;;;;;4957319;28;20058;-78
2023/07/22 08:48:47;;;;;;;13.18;8.20;;;23.90;67.90;;;;;;4952359;28;20449;-78
2023/07/22 08:51:18;;;;;;;7.70;5.10;;;24.50;68.80;;;;;;4958974;28;20049;-78
2023/07/22 08:53:45;;;;;;;8.90;5.80;;;24.80;66.60;;;;;;4965236;28;20046;-79
2023/07/22 08:56:11;;;;;;;7.60;5.93;;;24.50;66.90;;;;;;4963411;28;20390;-79
2023/07/22 08:58:36;;;;;;;9.07;7.15;;;25.10;68.40;;;;;;4963794;28;20034;-79
2023/07/22 09:01:02;;;;;;;10.18;5.28;;;25.10;69.20;;;;;;4952170;28;20077;-79
2023/07/22 09:03:28;;;;;;;8.65;6.43;;;25.10;65.90;;;;;;4959031;28;20494;-79
2023/07/22 09:05:54;;;;;;;6.18;5.28;;;25.20;64.60;;;;;;4957409;28;20422;-78
2023/07/22 09:08:19;;;;;;;8.13;5.00;;;25.00;64.90;;;;;;4973896;28;20039;-79
2023/07/22 09:10:45;;;;;;;5.50;4.53;;;25.50;63.70;;;;;;4959200;28;20047;-80
2023/07/22 09:13:11;;;;;;;7.13;5.13;;;25.90;62.30;;;;;;4958171;28;20043;-80
2023/07/22 09:15:37;;;;;;;5.72;4.20;;;26.40;64.20;;;;;;4951771;28;20035;-79
2023/07/22 09:18:05;;;;;;;5.80;4.53;;;26.30;60.90;;;;;;4956160;28;20042;-79
2023/07/22 09:20:31;;;;;;;6.40;4.90;;;26.60;62.40;;;;;;4963131;28;20080;-79
2023/07/22 09:22:59;;;;;;;5.45;3.30;;;26.90;61.50;;;;;;4958110;28;20065;-80
2023/07/22 09:25:25;;;;;;;8.43;3.15;;;27.20;59.80;;;;;;4975979;28;20035;-80
2023/07/22 09:27:52;;;;;;;7.57;2.38;;;27.00;59.40;;;;;;4958082;28;20751;-79
2023/07/22 09:30:28;;;;;;;5.70;4.18;;;26.90;59.40;;;;;;4960325;28;20492;-79
2023/07/22 09:32:58;;;;;;;6.68;4.93;;;26.70;61.00;;;;;;4970960;28;20042;-79
2023/07/22 09:35:48;;;;;;;9.50;4.93;;;26.80;60.40;;;;;;4970131;28;20510;-79
2023/07/22 09:38:17;;;;;;;6.13;4.95;;;26.60;58.90;;;;;;4964186;28;20073;-79
2023/07/22 09:40:42;;;;;;;6.15;4.22;;;25.90;59.10;;;;;;4965472;28;20126;-79
2023/07/22 09:43:14;;;;;;;4.93;3.70;;;26.60;61.20;;;;;;4973785;28;21094;-78
2023/07/22 09:45:40;;;;;;;6.90;5.20;;;26.80;59.30;;;;;;4953990;28;20117;-79
2023/07/22 09:48:05;;;;;;;7.47;5.32;;;26.80;59.70;;;;;;4980899;28;20117;-80
2023/07/22 09:50:31;;;;;;;6.05;4.32;;;26.80;59.90;;;;;;4963827;28;20058;-80
2023/07/22 09:53:03;;;;;;;3.35;2.97;;;27.10;59.70;;;;;;4962468;28;20101;-78
2023/07/22 09:55:30;;;;;;;5.30;4.15;;;27.20;58.70;;;;;;4952332;28;20047;-78
2023/07/22 09:57:57;;;;;;;5.80;4.57;;;27.00;58.80;;;;;;4949083;28;20492;-78
2023/07/22 10:00:49;;;;;;;4.43;3.90;;;27.20;58.70;;;;;;4961315;28;20441;-78
2023/07/22 10:03:15;;;;;;;7.00;4.55;;;27.20;57.10;;;;;;4946998;28;20490;-78
2023/07/22 10:05:41;;;;;;;5.75;4.40;;;27.00;58.20;;;;;;4947620;28;20038;-78
2023/07/22 10:08:06;;;;;;;5.97;4.20;;;27.10;58.20;;;;;;4955258;28;20585;-78
2023/07/22 10:10:33;;;;;;;6.65;4.18;;;26.80;57.10;;;;;;4967436;28;20038;-78
2023/07/22 10:12:59;;;;;;;7.32;2.63;;;26.40;57.80;;;;;;4976844;28;20754;-78
2023/07/22 10:15:27;;;;;;;4.47;3.33;;;26.70;57.30;;;;;;4965444;28;20038;-79
2023/07/22 10:17:53;;;;;;;5.70;3.53;;;27.20;56.70;;;;;;4947812;28;20486;-78
2023/07/22 10:20:19;;;;;;;6.72;3.70;;;27.40;57.10;;;;;;4986227;28;20046;-79
2023/07/22 10:22:46;;;;;;;5.78;3.35;;;27.70;57.70;;;;;;4967513;28;20461;-78
2023/07/22 10:25:13;;;;;;;3.35;2.75;;;28.10;57.30;;;;;;4975011;28;20046;-78
2023/07/22 10:27:40;;;;;;;7.10;4.13;;;27.80;54.60;;;;;;4968243;28;20441;-78
2023/07/22 10:30:10;;;;;;;4.50;3.60;;;27.60;55.80;;;;;;4964235;28;20058;-79
2023/07/22 10:32:39;;;;;;;5.07;3.83;;;28.20;55.80;;;;;;4962066;28;20026;-78
2023/07/22 10:35:10;;;;;;;4.97;3.38;;;28.60;56.40;;;;;;4952647;28;20031;-79
2023/07/22 10:37:36;;;;;;;3.35;2.63;;;29.00;55.00;;;;;;4960216;28;20038;-79
2023/07/22 10:40:30;;;;;;;3.42;2.50;;;29.40;54.70;;;;;;4961442;28;20120;-79
2023/07/22 10:43:00;;;;;;;4.97;3.55;;;29.40;54.40;;;;;;4934271;28;20524;-79
2023/07/22 10:45:26;;;;;;;3.47;3.03;;;29.50;55.10;;;;;;4962984;28;20035;-79
2023/07/22 10:48:07;;;;;;;8.15;2.70;;;29.60;54.90;;;;;;4972034;28;20046;-78
2023/07/22 10:50:52;;;;;;;2.40;2.20;;;28.90;52.70;;;;;;4980459;28;20429;-79
2023/07/22 10:53:23;;;;;;;4.22;2.72;;;28.70;53.40;;;;;;4987020;28;20098;-78
2023/07/22 10:56:14;;;;;;;3.42;2.55;;;28.40;53.10;;;;;;4990431;28;20434;-78
2023/07/22 10:58:46;;;;;;;2.47;2.28;;;29.30;53.70;;;;;;4962583;28;20042;-78
2023/07/22 11:01:24;;;;;;;3.88;3.00;;;29.10;52.30;;;;;;4963940;28;20054;-79
2023/07/22 11:04:11;;;;;;;3.35;2.22;;;28.90;54.20;;;;;;4955185;28;20039;-78
2023/07/22 11:06:38;;;;;;;3.35;2.63;;;29.20;53.20;;;;;;4288701;28;10000379;-78
2023/07/22 11:09:04;;;;;;;2.22;1.98;;;29.40;53.10;;;;;;4973956;28;20569;-79
2023/07/22 11:11:36;;;;;;;2.10;1.75;;;28.90;50.50;;;;;;4972161;28;20637;-79
2023/07/22 11:14:15;;;;;;;3.70;2.33;;;28.90;51.30;;;;;;4630944;28;10000492;-79
2023/07/22 11:16:45;;;;;;;3.03;2.10;;;29.20;51.60;;;;;;4945069;28;20339;-79
2023/07/22 11:19:10;;;;;;;5.03;2.53;;;29.40;50.50;;;;;;4943812;28;20383;-79
2023/07/22 11:21:36;;;;;;;4.63;2.20;;;29.20;50.40;;;;;;4963639;28;20030;-79
2023/07/22 11:24:04;;;;;;;5.18;2.00;;;29.70;52.00;;;;;;4960049;28;20053;-79
2023/07/22 11:26:30;;;;;;;3.53;2.13;;;30.20;50.90;;;;;;4959589;28;20030;-79
2023/07/22 11:28:56;;;;;;;2.75;1.90;;;29.60;48.80;;;;;;4960438;28;20056;-79
2023/07/22 11:31:22;;;;;;;3.20;2.45;;;29.40;49.70;;;;;;4951596;28;20113;-79
2023/07/22 11:33:47;;;;;;;3.03;2.10;;;29.40;52.10;;;;;;4958965;28;20057;-78
2023/07/22 11:36:13;;;;;;;2.40;2.20;;;29.80;49.50;;;;;;4962747;28;20034;-79
2023/07/22 11:38:39;;;;;;;2.95;1.85;;;30.30;49.90;;;;;;4962079;28;20038;-80
2023/07/22 11:41:05;;;;;;;2.10;1.90;;;30.50;49.50;;;;;;4951267;28;20035;-79
2023/07/22 11:43:30;;;;;;;2.60;1.98;;;30.70;49.40;;;;;;4945571;28;20046;-80
2023/07/22 11:45:56;;;;;;;2.10;1.77;;;30.60;48.90;;;;;;4961215;28;20049;-80
2023/07/22 11:48:21;;;;;;;4.75;2.35;;;30.30;49.50;;;;;;4989584;28;20038;-78
2023/07/22 11:50:47;;;;;;;2.50;2.30;;;30.10;48.80;;;;;;4948414;28;20409;-78
2023/07/22 11:53:14;;;;;;;3.13;1.88;;;29.80;48.50;;;;;;4963569;28;20353;-79
2023/07/22 11:55:40;;;;;;;2.00;1.77;;;29.80;49.20;;;;;;4957698;28;20320;-79
2023/07/22 11:58:06;;;;;;;2.47;1.98;;;30.00;49.90;;;;;;4946813;28;20125;-79
2023/07/22 12:00:33;;;;;;;3.60;2.22;;;30.70;50.00;;;;;;4955733;28;20061;-79
2023/07/22 12:03:05;;;;;;;4.43;2.25;;;31.00;49.20;;;;;;4966450;28;20074;-80
2023/07/22 12:05:31;;;;;;;4.13;2.45;;;31.30;49.60;;;;;;4962371;28;20156;-78
2023/07/22 12:07:56;;;;;;;2.20;1.75;;;31.50;48.80;;;;;;4951261;28;20075;-78
2023/07/22 12:10:23;;;;;;;1.48;1.20;;;31.40;49.00;;;;;;4960897;28;20061;-78
2023/07/22 12:12:49;;;;;;;2.50;1.50;;;31.40;48.20;;;;;;4955201;28;20038;-78
2023/07/22 12:15:17;;;;;;;4.68;2.00;;;31.40;46.90;;;;;;4964168;28;20524;-78
2023/07/22 12:17:53;;;;;;;1.80;1.23;;;31.60;47.40;;;;;;4974356;28;20384;-78
2023/07/22 12:20:19;;;;;;;2.38;1.60;;;31.40;46.20;;;;;;4952119;28;20387;-78
2023/07/22 12:22:46;;;;;;;2.67;1.75;;;31.20;47.30;;;;;;4953319;28;20089;-78
2023/07/22 12:25:11;;;;;;;2.00;1.52;;;31.20;47.50;;;;;;4995928;28;20402;-78
2023/07/22 12:27:37;;;;;;;2.28;1.60;;;31.10;47.10;;;;;;4979820;28;20046;-78
2023/07/22 12:30:04;;;;;;;5.22;1.95;;;31.00;47.00;;;;;;4967275;28;20437;-78
2023/07/22 12:32:29;;;;;;;2.10;1.67;;;30.80;47.20;;;;;;4983412;28;20041;-78
2023/07/22 12:34:55;;;;;;;3.40;1.63;;;30.30;47.70;;;;;;4965495;28;20046;-77
2023/07/22 12:37:20;;;;;;;1.13;1.00;;;29.80;47.60;;;;;;4963895;28;20054;-77
2023/07/22 12:39:46;;;;;;;2.63;1.38;;;30.10;47.20;;;;;;4955238;28;20743;-78
2023/07/22 12:42:11;;;;;;;1.50;1.40;;;29.90;46.90;;;;;;4952141;28;20023;-77